EDAC/ADC METAR and TAF weather

Enter ICAO airport designator
Station Type Date Time Source
EDAC METAR 2018/07/21 12:50 UTC NOAA

EDAC 211250Z 24007KT 200V270 CAVOK 26/14 Q1012


Station Type Date Time Source
EDAC Decoded METAR 2018/07/21 12:50 UTC NOAA

Altenburg Nobitz, Germany (EDAC) 50-58N 012-30E
Jul 21, 2018 - 08:50 AM EDT / 2018.07.21 1250 UTC
Wind: from the WSW (240 degrees) at 8 MPH (7 KT) (direction variable):0
Visibility: greater than 7 mile(s):0
Temperature: 78 F (26 C)
Dew Point: 57 F (14 C)
Relative Humidity: 47%
Pressure (altimeter): 29.88 in. Hg (1012 hPa)
ob: EDAC 211250Z 24007KT 200V270 CAVOK 26/14 Q1012
cycle: 13

Station Type Date Time Source
EDAC TAF UTC NOAA

Error!


Example: see airport list